createdAt,value
2023-03-10T00:01:52.892Z,28.67
2023-03-10T00:04:38.425Z,29.45
2023-03-10T00:07:23.869Z,26.30
2023-03-10T00:10:12.612Z,32.20
2023-03-10T00:12:58.348Z,27.67
2023-03-10T00:15:43.725Z,27.83
2023-03-10T00:18:29.348Z,28.05
2023-03-10T00:21:21.717Z,24.75
2023-03-10T00:24:07.217Z,27.58
2023-03-10T00:26:52.558Z,26.58
2023-03-10T00:29:38.860Z,26.05
2023-03-10T00:32:24.128Z,25.58
2023-03-10T00:35:10.028Z,33.10
2023-03-10T00:37:56.183Z,29.33
2023-03-10T00:40:41.359Z,25.80
2023-03-10T00:43:27.476Z,28.45
2023-03-10T00:46:12.929Z,28.00
2023-03-10T00:48:58.641Z,25.08
2023-03-10T00:51:44.239Z,31.17
2023-03-10T00:54:29.669Z,27.27
2023-03-10T00:57:14.971Z,29.35
2023-03-10T01:00:02.743Z,27.30
2023-03-10T01:02:48.216Z,29.08
2023-03-10T01:05:33.779Z,30.20
2023-03-10T01:08:19.757Z,28.83
2023-03-10T01:11:06.912Z,31.10
2023-03-10T01:13:52.845Z,30.08
2023-03-10T01:16:40.956Z,30.23
2023-03-10T01:19:26.410Z,28.00
2023-03-10T01:22:12.074Z,31.85
2023-03-10T01:24:57.245Z,29.05
2023-03-10T01:27:43.445Z,29.00
2023-03-10T01:30:28.530Z,30.40
2023-03-10T01:33:15.167Z,33.35
2023-03-10T01:36:10.112Z,29.77
2023-03-10T01:39:00.999Z,31.33
2023-03-10T01:41:46.659Z,29.55
2023-03-10T01:44:32.396Z,31.27
2023-03-10T01:47:18.179Z,31.60
2023-03-10T01:50:06.772Z,27.60
2023-03-10T01:52:58.527Z,29.42
2023-03-10T01:55:53.190Z,30.15
2023-03-10T01:58:42.546Z,26.55
2023-03-10T02:01:27.979Z,28.17
2023-03-10T02:04:49.888Z,30.27
2023-03-10T02:10:28.034Z,31.50
2023-03-10T02:13:13.282Z,30.35
2023-03-10T02:16:02.216Z,30.55
2023-03-10T02:19:12.500Z,31.48
2023-03-10T02:22:08.544Z,27.25
2023-03-10T02:25:34.320Z,29.63
2023-03-10T02:28:19.861Z,28.85
2023-03-10T02:31:05.764Z,27.65
2023-03-10T02:33:52.753Z,26.48
2023-03-10T02:36:37.919Z,27.48
2023-03-10T02:39:23.510Z,27.65
2023-03-10T02:42:11.433Z,25.48
2023-03-10T02:44:57.290Z,28.50
2023-03-10T02:47:43.331Z,26.88
2023-03-10T02:50:33.494Z,29.80
2023-03-10T02:53:24.797Z,31.02
2023-03-10T02:56:10.778Z,29.80
2023-03-10T02:58:58.516Z,28.35
2023-03-10T03:01:47.993Z,29.92
2023-03-10T03:04:36.196Z,28.98
2023-03-10T03:07:21.608Z,28.15
2023-03-10T03:10:09.074Z,28.63
2023-03-10T03:12:56.780Z,28.10
2023-03-10T03:15:45.932Z,26.98
2023-03-10T03:18:33.991Z,29.05
2023-03-10T03:21:19.557Z,26.45
2023-03-10T03:24:05.543Z,28.95
2023-03-10T03:26:55.148Z,28.67
2023-03-10T03:29:44.150Z,26.45
2023-03-10T03:32:32.440Z,27.17
2023-03-10T03:35:22.207Z,23.52
2023-03-10T03:38:11.611Z,26.42
2023-03-10T03:40:57.546Z,26.33
2023-03-10T03:43:43.068Z,29.92
2023-03-10T03:46:28.599Z,27.85
2023-03-10T03:49:17.148Z,28.20
2023-03-10T03:52:05.103Z,29.63
2023-03-10T03:54:50.838Z,30.55
2023-03-10T03:57:36.617Z,28.13
2023-03-10T04:00:24.594Z,28.42
2023-03-10T04:06:07.392Z,29.48
2023-03-10T04:08:55.665Z,31.25
2023-03-10T04:11:44.205Z,29.92
2023-03-10T04:14:29.657Z,29.08
2023-03-10T04:17:16.788Z,30.50
2023-03-10T04:20:08.763Z,30.05
2023-03-10T04:22:57.728Z,27.70
2023-03-10T04:25:49.211Z,28.65
2023-03-10T04:28:36.668Z,30.55
2023-03-10T04:31:22.446Z,26.60
2023-03-10T04:34:09.853Z,29.95
2023-03-10T04:36:56.867Z,28.75
2023-03-10T04:39:43.109Z,26.45
2023-03-10T04:42:34.640Z,25.33
2023-03-10T04:45:20.019Z,22.02
2023-03-10T04:48:07.113Z,26.38
2023-03-10T04:51:12.852Z,24.13
2023-03-10T04:54:05.184Z,23.60
2023-03-10T04:56:53.971Z,25.40
2023-03-10T04:59:39.298Z,23.42
2023-03-10T05:02:26.979Z,23.05
2023-03-10T05:05:12.781Z,21.13
2023-03-10T05:08:02.133Z,20.17
2023-03-10T05:10:48.495Z,23.45
2023-03-10T05:13:33.777Z,19.70
2023-03-10T05:16:24.281Z,18.77
2023-03-10T05:19:11.421Z,24.98
2023-03-10T05:21:57.111Z,20.92
2023-03-10T05:24:43.105Z,22.85
2023-03-10T05:27:28.597Z,24.00
2023-03-10T05:30:18.845Z,23.98
2023-03-10T05:33:08.074Z,20.27
2023-03-10T05:35:53.625Z,22.48
2023-03-10T05:38:39.464Z,19.67
2023-03-10T05:41:27.545Z,25.50
2023-03-10T05:44:16.068Z,29.10
2023-03-10T05:47:03.131Z,27.05
2023-03-10T05:49:54.441Z,23.23
2023-03-10T05:52:42.524Z,27.48
2023-03-10T05:55:29.905Z,28.58
2023-03-10T05:58:15.342Z,30.05
2023-03-10T06:01:00.897Z,26.67
2023-03-10T06:03:51.404Z,26.02
2023-03-10T06:06:36.814Z,24.27
2023-03-10T06:09:24.909Z,28.30
2023-03-10T06:12:10.654Z,27.27
2023-03-10T06:14:55.847Z,27.20
2023-03-10T06:17:42.944Z,35.70
2023-03-10T06:20:28.512Z,33.65
2023-03-10T06:23:14.910Z,35.05
2023-03-10T06:26:03.409Z,34.47
2023-03-10T06:28:49.093Z,32.97
2023-03-10T06:31:35.161Z,29.58
2023-03-10T06:34:20.733Z,33.03
2023-03-10T06:37:06.409Z,38.58
2023-03-10T06:39:51.997Z,38.40
2023-03-10T06:42:37.733Z,36.70
2023-03-10T06:45:23.324Z,31.52
2023-03-10T06:48:09.041Z,30.10
2023-03-10T06:51:01.450Z,35.13
2023-03-10T06:53:49.320Z,32.92
2023-03-10T06:56:34.592Z,36.78
2023-03-10T06:59:23.156Z,35.97
2023-03-10T07:02:12.049Z,38.67
2023-03-10T07:04:57.508Z,32.88
2023-03-10T07:07:46.088Z,30.95
2023-03-10T07:10:33.285Z,33.13
2023-03-10T07:13:19.411Z,33.05
2023-03-10T07:16:08.584Z,26.40
2023-03-10T07:18:53.892Z,26.83
2023-03-10T07:21:42.304Z,26.45
2023-03-10T07:24:27.850Z,26.63
2023-03-10T07:27:13.509Z,31.25
2023-03-10T07:29:59.038Z,23.60
2023-03-10T07:32:44.804Z,21.90
2023-03-10T07:35:31.373Z,22.27
2023-03-10T07:38:16.935Z,24.98
2023-03-10T07:41:08.691Z,22.90
2023-03-10T07:43:55.109Z,24.85
2023-03-10T07:46:40.378Z,25.25
2023-03-10T07:49:25.961Z,22.92
2023-03-10T07:52:11.442Z,19.95
2023-03-10T07:54:59.916Z,20.05
2023-03-10T07:57:45.573Z,20.13
2023-03-10T08:00:30.872Z,17.95
2023-03-10T08:03:16.546Z,21.17
2023-03-10T08:06:06.635Z,21.98
2023-03-10T08:08:52.738Z,18.80
2023-03-10T08:11:38.157Z,21.02
2023-03-10T08:14:24.118Z,18.55
2023-03-10T08:17:09.604Z,15.10
2023-03-10T08:19:55.204Z,15.80
2023-03-10T08:22:41.389Z,18.50
2023-03-10T08:25:26.799Z,12.75
2023-03-10T08:28:12.462Z,14.75
2023-03-10T08:31:04.677Z,12.95
2023-03-10T08:33:50.809Z,13.80
2023-03-10T08:36:40.243Z,14.40
2023-03-10T08:39:27.684Z,14.68
2023-03-10T08:42:19.309Z,15.35
2023-03-10T08:45:08.062Z,16.08
2023-03-10T08:47:57.166Z,11.52
2023-03-10T08:50:42.650Z,11.68
2023-03-10T08:53:38.945Z,10.35
2023-03-10T08:56:25.064Z,10.40
2023-03-10T08:59:10.634Z,11.35
2023-03-10T09:01:56.715Z,10.82
2023-03-10T09:04:49.386Z,8.00
2023-03-10T09:07:34.737Z,10.52
2023-03-10T09:10:20.388Z,13.90
2023-03-10T09:13:13.789Z,14.75
2023-03-10T09:15:59.554Z,9.93
2023-03-10T09:18:45.324Z,9.75
2023-03-10T09:21:37.796Z,8.65
2023-03-10T09:24:23.843Z,9.18
2023-03-10T09:27:09.217Z,10.52
2023-03-10T09:29:54.837Z,8.10
2023-03-10T09:32:40.276Z,4.60
2023-03-10T09:35:33.057Z,5.47
2023-03-10T09:38:18.827Z,5.00
2023-03-10T09:41:35.211Z,4.72
2023-03-10T09:44:35.011Z,4.18
2023-03-10T09:47:43.803Z,3.60
2023-03-10T09:50:38.832Z,4.35
2023-03-10T09:53:38.971Z,4.47
2023-03-10T09:56:35.934Z,3.20
2023-03-10T09:59:31.768Z,3.45
2023-03-10T10:02:29.230Z,2.92
2023-03-10T10:05:31.874Z,4.38
2023-03-10T10:08:22.553Z,2.60
2023-03-10T10:11:15.688Z,2.85
2023-03-10T10:14:31.490Z,3.28
2023-03-10T10:17:29.321Z,3.90
2023-03-10T10:20:32.016Z,5.35
2023-03-10T10:23:27.545Z,3.60
2023-03-10T10:26:16.918Z,4.25
2023-03-10T10:29:18.508Z,4.38
2023-03-10T10:32:15.327Z,3.80
2023-03-10T10:35:15.221Z,4.88
2023-03-10T10:38:02.769Z,4.05
2023-03-10T10:40:49.694Z,7.60
2023-03-10T10:43:43.810Z,3.95
2023-03-10T10:46:35.972Z,4.28
2023-03-10T10:49:27.592Z,4.47
2023-03-10T10:52:25.525Z,6.32
2023-03-10T10:55:27.469Z,4.18
2023-03-10T10:58:36.628Z,4.53
2023-03-10T11:01:22.776Z,5.72
2023-03-10T11:04:12.333Z,5.47
2023-03-10T11:07:19.640Z,5.80
2023-03-10T11:10:15.875Z,6.03
2023-03-10T11:13:19.101Z,4.28
2023-03-10T11:16:16.888Z,6.55
2023-03-10T11:19:14.155Z,5.78
2023-03-10T11:22:46.002Z,4.80
2023-03-10T11:25:46.653Z,6.45
2023-03-10T11:28:51.399Z,6.20
2023-03-10T11:31:50.904Z,5.75
2023-03-10T11:34:42.330Z,4.25
2023-03-10T11:37:55.527Z,6.10
2023-03-10T11:40:58.582Z,8.68
2023-03-10T11:44:18.081Z,5.68
2023-03-10T11:47:14.927Z,5.05
2023-03-10T11:50:26.948Z,3.80
2023-03-10T11:53:55.526Z,4.50
2023-03-10T11:56:42.225Z,4.60
2023-03-10T11:59:34.429Z,4.55
2023-03-10T12:02:36.451Z,4.68
2023-03-10T12:05:26.026Z,4.45
2023-03-10T12:08:13.814Z,4.75
2023-03-10T12:11:03.307Z,4.35
2023-03-10T12:14:01.277Z,4.25
2023-03-10T12:16:48.562Z,6.22
2023-03-10T12:20:09.079Z,6.30
2023-03-10T12:22:55.542Z,6.63
2023-03-10T12:25:48.735Z,6.38
2023-03-10T12:28:34.660Z,6.28
2023-03-10T12:31:39.845Z,5.85
2023-03-10T12:34:34.679Z,5.90
2023-03-10T12:37:23.690Z,10.63
2023-03-10T12:40:48.748Z,7.57
2023-03-10T12:43:52.667Z,6.70
2023-03-10T12:47:14.196Z,7.97
2023-03-10T12:50:42.670Z,6.32
2023-03-10T12:53:54.162Z,6.35
2023-03-10T12:56:43.086Z,6.88
2023-03-10T12:59:49.653Z,8.85
2023-03-10T13:02:49.017Z,8.90
2023-03-10T13:05:37.950Z,12.23
2023-03-10T13:08:33.329Z,7.93
2023-03-10T13:11:23.616Z,8.15
2023-03-10T13:14:23.464Z,8.75
2023-03-10T13:17:22.754Z,7.35
2023-03-10T13:20:15.219Z,9.25
2023-03-10T13:23:00.863Z,8.40
2023-03-10T13:26:01.072Z,8.43
2023-03-10T13:28:54.169Z,10.05
2023-03-10T13:31:40.644Z,8.85
2023-03-10T13:34:36.664Z,16.65
2023-03-10T13:37:25.294Z,13.30
2023-03-10T13:40:16.227Z,13.93
2023-03-10T13:43:06.860Z,11.30
2023-03-10T13:46:00.190Z,15.10
2023-03-10T13:48:47.560Z,13.13
2023-03-10T13:51:38.006Z,12.15
2023-03-10T13:54:26.858Z,14.82
2023-03-10T13:57:35.455Z,16.73
2023-03-10T14:00:23.632Z,21.58
2023-03-10T14:03:09.104Z,12.45
2023-03-10T14:05:54.651Z,15.80
2023-03-10T14:08:40.605Z,11.20
2023-03-10T14:11:36.002Z,16.85
2023-03-10T14:17:38.679Z,7.70
2023-03-10T14:20:40.174Z,8.95
2023-03-10T14:23:27.516Z,14.38
2023-03-10T14:26:16.796Z,12.20
2023-03-10T14:29:06.420Z,14.85
2023-03-10T14:31:52.090Z,13.43
2023-03-10T14:34:39.928Z,12.68
2023-03-10T14:37:28.192Z,13.73
2023-03-10T14:40:13.877Z,13.45
2023-03-10T14:43:01.569Z,16.17
2023-03-10T14:45:49.638Z,12.35
2023-03-10T14:48:39.720Z,11.93
2023-03-10T14:51:35.098Z,13.13
2023-03-10T14:54:27.066Z,10.57
2023-03-10T14:57:14.920Z,10.32
2023-03-10T15:00:00.586Z,12.05
2023-03-10T15:02:47.924Z,10.70
2023-03-10T15:05:47.895Z,12.27
2023-03-10T15:08:34.202Z,9.65
2023-03-10T15:11:36.210Z,9.60
2023-03-10T15:14:22.104Z,10.70
2023-03-10T15:17:09.290Z,11.63
2023-03-10T15:19:54.943Z,15.20
2023-03-10T15:22:40.616Z,10.52
2023-03-10T15:25:26.756Z,10.98
2023-03-10T15:28:13.178Z,14.20
2023-03-10T15:30:58.692Z,10.05
2023-03-10T15:33:44.223Z,10.52
2023-03-10T15:36:29.672Z,6.60
2023-03-10T15:39:29.094Z,7.72
2023-03-10T15:42:17.028Z,6.30
2023-03-10T15:45:04.988Z,3.22
2023-03-10T15:47:50.571Z,4.85
2023-03-10T15:50:36.546Z,4.25
2023-03-10T15:53:22.005Z,6.50
2023-03-10T15:56:09.085Z,7.05
2023-03-10T15:58:57.438Z,8.45
2023-03-10T16:01:45.291Z,5.85
2023-03-10T16:04:34.473Z,4.22
2023-03-10T16:07:20.091Z,5.53
2023-03-10T16:10:06.246Z,6.35
2023-03-10T16:12:51.844Z,2.50
2023-03-10T16:15:39.342Z,7.40
2023-03-10T16:18:24.964Z,5.20
2023-03-10T16:21:10.503Z,5.18
2023-03-10T16:23:58.426Z,4.30
2023-03-10T16:26:44.867Z,8.23
2023-03-10T16:29:30.701Z,3.92
2023-03-10T16:32:17.683Z,7.60
2023-03-10T16:35:03.349Z,5.97
2023-03-10T16:37:48.916Z,3.60
2023-03-10T16:40:34.530Z,6.28
2023-03-10T16:43:21.691Z,4.68
2023-03-10T16:46:25.484Z,6.10
2023-03-10T16:54:58.730Z,13.55
2023-03-10T16:57:48.523Z,12.25
2023-03-10T17:00:39.134Z,7.43
2023-03-10T17:03:26.020Z,6.47
2023-03-10T17:06:16.513Z,10.98
2023-03-10T17:09:02.412Z,6.68
2023-03-10T17:11:52.484Z,7.07
2023-03-10T17:14:39.603Z,8.52
2023-03-10T17:17:25.333Z,7.03
2023-03-10T17:20:11.611Z,8.07
2023-03-10T17:22:56.991Z,4.63
2023-03-10T17:25:44.181Z,6.25
2023-03-10T17:28:29.884Z,4.88
2023-03-10T17:31:33.414Z,6.32
2023-03-10T17:34:19.718Z,11.73
2023-03-10T17:37:05.247Z,11.73
2023-03-10T17:39:50.542Z,4.28
2023-03-10T17:42:37.183Z,10.57
2023-03-10T17:45:22.694Z,9.98
2023-03-10T17:48:08.833Z,11.98
2023-03-10T17:50:54.189Z,13.85
2023-03-10T17:53:40.074Z,13.18
2023-03-10T17:56:26.412Z,13.77
2023-03-10T17:59:14.095Z,9.95
2023-03-10T18:02:03.644Z,12.82
2023-03-10T18:04:48.989Z,12.88
2023-03-10T18:07:34.920Z,11.85
2023-03-10T18:10:21.329Z,7.28
2023-03-10T18:13:10.364Z,12.20
2023-03-10T18:15:56.900Z,6.22
2023-03-10T18:18:42.279Z,14.55
2023-03-10T18:21:28.493Z,15.98
2023-03-10T18:24:13.983Z,13.30
2023-03-10T18:27:07.197Z,10.68
2023-03-10T18:29:55.658Z,8.85
2023-03-10T18:32:42.291Z,8.45
2023-03-10T18:35:27.999Z,7.72
2023-03-10T18:38:25.766Z,9.00
2023-03-10T18:41:11.267Z,10.25
2023-03-10T18:43:56.962Z,9.55
2023-03-10T18:46:42.507Z,7.20
2023-03-10T18:49:28.727Z,13.82
2023-03-10T18:52:16.225Z,9.57
2023-03-10T18:55:04.882Z,12.80
2023-03-10T18:57:50.411Z,7.43
2023-03-10T19:00:35.560Z,8.85
2023-03-10T19:03:23.688Z,10.70
2023-03-10T19:06:09.729Z,16.17
2023-03-10T19:08:54.874Z,5.70
2023-03-10T19:11:40.536Z,15.13
2023-03-10T19:14:25.979Z,14.60
2023-03-10T19:17:12.042Z,12.95
2023-03-10T19:20:00.752Z,12.05
2023-03-10T19:22:51.550Z,12.98
2023-03-10T19:25:36.877Z,11.05
2023-03-10T19:28:22.591Z,19.42
2023-03-10T19:31:11.680Z,9.00
2023-03-10T19:34:01.336Z,13.32
2023-03-10T19:36:48.449Z,10.35
2023-03-10T19:39:37.228Z,12.93
2023-03-10T19:42:24.922Z,16.20
2023-03-10T19:45:16.043Z,9.32
2023-03-10T19:48:04.567Z,18.50
2023-03-10T19:50:55.809Z,12.55
2023-03-10T19:53:44.060Z,18.52
2023-03-10T19:56:31.419Z,10.38
2023-03-10T19:59:16.915Z,11.50
2023-03-10T20:02:02.532Z,20.02
2023-03-10T20:04:49.033Z,12.45
2023-03-10T20:07:35.599Z,13.25
2023-03-10T20:10:23.982Z,15.80
2023-03-10T20:13:09.330Z,15.98
2023-03-10T20:15:55.070Z,12.80
2023-03-10T20:18:41.221Z,10.48
2023-03-10T20:21:27.475Z,11.57
2023-03-10T20:24:13.176Z,12.32
2023-03-10T20:27:04.450Z,12.48
2023-03-10T20:29:50.262Z,17.58
2023-03-10T20:32:35.808Z,28.05
2023-03-10T20:35:22.103Z,14.65
2023-03-10T20:38:07.532Z,23.33
2023-03-10T20:40:53.120Z,17.88
2023-03-10T20:43:39.969Z,14.38
2023-03-10T20:46:25.874Z,9.98
2023-03-10T20:49:15.611Z,15.73
2023-03-10T20:52:00.720Z,9.43
2023-03-10T20:54:46.894Z,11.50
2023-03-10T20:57:33.029Z,13.55
2023-03-10T21:00:22.353Z,7.45
2023-03-10T21:03:08.579Z,7.47
2023-03-10T21:05:54.410Z,21.63
2023-03-10T21:08:39.899Z,9.45
2023-03-10T21:11:25.599Z,14.70
2023-03-10T21:14:11.123Z,13.05
2023-03-10T21:16:59.905Z,9.75
2023-03-10T21:19:45.469Z,11.38
2023-03-10T21:22:35.108Z,13.35
2023-03-10T21:25:24.005Z,10.27
2023-03-10T21:28:09.583Z,10.02
2023-03-10T21:30:56.089Z,8.60
2023-03-10T21:33:41.880Z,6.57
2023-03-10T21:36:28.080Z,9.35
2023-03-10T21:39:16.111Z,7.30
2023-03-10T21:42:01.727Z,11.77
2023-03-10T21:44:48.263Z,8.00
2023-03-10T21:47:33.426Z,10.65
2023-03-10T21:50:19.963Z,17.98
2023-03-10T21:53:08.808Z,8.93
2023-03-10T21:55:54.384Z,12.70
2023-03-10T21:58:42.551Z,11.88
2023-03-10T22:01:28.650Z,12.63
2023-03-10T22:04:14.735Z,8.82
2023-03-10T22:07:00.929Z,10.60
2023-03-10T22:09:47.114Z,7.45
2023-03-10T22:12:33.304Z,7.80
2023-03-10T22:15:22.232Z,10.43
2023-03-10T22:18:07.736Z,10.50
2023-03-10T22:20:53.385Z,6.07
2023-03-10T22:23:38.962Z,11.18
2023-03-10T22:26:24.421Z,7.50
2023-03-10T22:29:09.691Z,14.35
2023-03-10T22:31:56.419Z,8.93
2023-03-10T22:34:42.284Z,8.52
2023-03-10T22:37:27.964Z,10.52
2023-03-10T22:40:16.942Z,10.70
2023-03-10T22:43:02.366Z,8.73
2023-03-10T22:45:48.019Z,12.52
2023-03-10T22:48:33.551Z,5.45
2023-03-10T22:51:21.726Z,4.05
2023-03-10T22:54:07.200Z,8.60
2023-03-10T22:56:52.442Z,9.07
2023-03-10T22:59:38.084Z,6.82
2023-03-10T23:02:23.651Z,13.07
2023-03-10T23:05:32.325Z,10.60
2023-03-10T23:08:17.121Z,6.93
2023-03-10T23:11:02.474Z,6.72
2023-03-10T23:13:48.126Z,9.68
2023-03-10T23:16:36.646Z,11.93
2023-03-10T23:19:22.395Z,6.63
2023-03-10T23:22:08.009Z,7.85
2023-03-10T23:24:53.209Z,13.45
2023-03-10T23:27:40.592Z,9.38
2023-03-10T23:30:26.626Z,8.95
2023-03-10T23:33:18.082Z,12.30
2023-03-10T23:36:04.162Z,20.30
2023-03-10T23:38:49.640Z,6.85
2023-03-10T23:41:35.173Z,11.23
2023-03-10T23:44:23.727Z,5.25
2023-03-10T23:47:11.850Z,12.25
2023-03-10T23:49:57.071Z,6.70
2023-03-10T23:52:42.559Z,6.75
2023-03-10T23:55:31.860Z,13.65
2023-03-10T23:58:24.537Z,10.45
